Terminal Aerodrome Forecast
Issued by NWS

Home | Current Version | Previous Version | Text Only | Print | Product List | Glossary On
Versions: 1 2 3 4 5 6 7 8 9 10 11 12 13 14 15 16 17
000
FTUS43 KMQT 242300
TAFCMX
TAF
KCMX 242327Z 2500/2524 34008KT 4SM -SHSN BR OVC010
      TEMPO 2500/2502 6SM BR BKN035
     FM250700 29009KT 6SM -SHSN OVC015
     FM251400 26010G15KT P6SM OVC025
     FM251900 24010KT P6SM OVC030=

USA.gov is the U.S. government's official web portal to all federal, state and local government web resources and services.